TAM3180 SBFI-SBKP
Flight info
| Callsign | TAM3180 |
|---|---|
| Flight time | 1h 8m |
| Altitude | 35000 |
| Route | KAMIL UZ28 TERER DCT EDRAT |
| Aircraft | A321/M-SDE3FGHIRWY/LB1 |
Departure
| Time | 2026-04-27 18:21 |
|---|---|
| Airport | Cataratas International Airport (SBFI) |
Arrival
| Time | 2026-04-27 19:29 |
|---|---|
| Airport | Viracopos International Airport (SBKP) |
| Time | Latitude | Longitude | Altitude | Speed | Heading |
|---|---|---|---|---|---|
| 2026-04-27 18:13 | -25.59692 | -54.48848 | 798 ft | 0 kts | 221° |
| 2026-04-27 18:14 | -25.59682 | -54.48839 | 798 ft | 4 kts | 223° |
| 2026-04-27 18:14 | -25.59668 | -54.48816 | 798 ft | 4 kts | 263° |
| 2026-04-27 18:15 | -25.59672 | -54.48790 | 798 ft | 3 kts | 309° |
| 2026-04-27 18:15 | -25.59674 | -54.48787 | 798 ft | 0 kts | 311° |
| 2026-04-27 18:16 | -25.59673 | -54.48788 | 798 ft | 1 kts | 312° |
| 2026-04-27 18:17 | -25.59654 | -54.48812 | 798 ft | 10 kts | 310° |
| 2026-04-27 18:17 | -25.59586 | -54.48899 | 799 ft | 16 kts | 310° |
| 2026-04-27 18:17 | -25.59515 | -54.48993 | 799 ft | 17 kts | 309° |
| 2026-04-27 18:17 | -25.59422 | -54.49039 | 799 ft | 15 kts | 29° |
| 2026-04-27 18:18 | -25.59331 | -54.49055 | 799 ft | 15 kts | 316° |
| 2026-04-27 18:18 | -25.59260 | -54.49143 | 800 ft | 16 kts | 309° |
| 2026-04-27 18:18 | -25.59176 | -54.49255 | 797 ft | 22 kts | 311° |
| 2026-04-27 18:18 | -25.59070 | -54.49389 | 796 ft | 23 kts | 310° |
| 2026-04-27 18:19 | -25.58964 | -54.49525 | 796 ft | 24 kts | 310° |
| 2026-04-27 18:19 | -25.58857 | -54.49661 | 799 ft | 23 kts | 314° |
| 2026-04-27 18:19 | -25.58748 | -54.49785 | 800 ft | 23 kts | 311° |
| 2026-04-27 18:19 | -25.58642 | -54.49884 | 801 ft | 16 kts | 340° |
| 2026-04-27 18:20 | -25.58615 | -54.49951 | 802 ft | 10 kts | 199° |
| 2026-04-27 18:20 | -25.58696 | -54.49868 | 801 ft | 39 kts | 130° |
| 2026-04-27 18:20 | -25.59075 | -54.49383 | 797 ft | 121 kts | 130° |
| 2026-04-27 18:20 | -25.59757 | -54.48508 | 1002 ft | 166 kts | 135° |
| 2026-04-27 18:21 | -25.60494 | -54.47520 | 1872 ft | 171 kts | 132° |
| 2026-04-27 18:21 | -25.61255 | -54.46435 | 2556 ft | 190 kts | 130° |
| 2026-04-27 18:21 | -25.62048 | -54.45242 | 3124 ft | 193 kts | 129° |
| 2026-04-27 18:21 | -25.62941 | -54.44067 | 3445 ft | 207 kts | 135° |
| 2026-04-27 18:22 | -25.63938 | -54.42865 | 3914 ft | 215 kts | 136° |
| 2026-04-27 18:22 | -25.64957 | -54.41638 | 4636 ft | 217 kts | 136° |
| 2026-04-27 18:22 | -25.65914 | -54.40324 | 5269 ft | 227 kts | 120° |
| 2026-04-27 18:22 | -25.66182 | -54.38536 | 5547 ft | 256 kts | 83° |
| 2026-04-27 18:23 | -25.65728 | -54.36534 | 5837 ft | 277 kts | 77° |
| 2026-04-27 18:23 | -25.65266 | -54.34438 | 6469 ft | 283 kts | 79° |
| 2026-04-27 18:23 | -25.64872 | -54.32257 | 7131 ft | 288 kts | 81° |
| 2026-04-27 18:23 | -25.64549 | -54.30057 | 7747 ft | 293 kts | 82° |
| 2026-04-27 18:24 | -25.64275 | -54.27832 | 8386 ft | 297 kts | 83° |
| 2026-04-27 18:24 | -25.64020 | -54.25539 | 9061 ft | 301 kts | 83° |
| 2026-04-27 18:24 | -25.63773 | -54.23223 | 9731 ft | 305 kts | 83° |
| 2026-04-27 18:24 | -25.63526 | -54.20867 | 10291 ft | 313 kts | 83° |
| 2026-04-27 18:25 | -25.63266 | -54.18387 | 10430 ft | 335 kts | 83° |
| 2026-04-27 18:25 | -25.62984 | -54.15733 | 10554 ft | 357 kts | 83° |
| 2026-04-27 18:25 | -25.62681 | -54.12922 | 10733 ft | 375 kts | 83° |
| 2026-04-27 18:25 | -25.62370 | -54.10017 | 11194 ft | 382 kts | 82° |
| 2026-04-27 18:26 | -25.62057 | -54.07079 | 11730 ft | 387 kts | 82° |
| 2026-04-27 18:26 | -25.61736 | -54.04091 | 12302 ft | 392 kts | 82° |
| 2026-04-27 18:26 | -25.61405 | -54.01076 | 12862 ft | 396 kts | 82° |
| 2026-04-27 18:26 | -25.61072 | -53.98031 | 13396 ft | 402 kts | 81° |
| 2026-04-27 18:27 | -25.60737 | -53.94930 | 13907 ft | 407 kts | 81° |
| 2026-04-27 18:27 | -25.60399 | -53.91795 | 14379 ft | 412 kts | 81° |
| 2026-04-27 18:27 | -25.60056 | -53.88627 | 14870 ft | 416 kts | 81° |
| 2026-04-27 18:27 | -25.59702 | -53.85423 | 15384 ft | 420 kts | 81° |
| 2026-04-27 18:28 | -25.59342 | -53.82199 | 15912 ft | 423 kts | 81° |
| 2026-04-27 18:28 | -25.58985 | -53.78991 | 16433 ft | 427 kts | 81° |
| 2026-04-27 18:28 | -25.58597 | -53.75675 | 16907 ft | 431 kts | 79° |
| 2026-04-27 18:28 | -25.58098 | -53.72384 | 17378 ft | 435 kts | 77° |
| 2026-04-27 18:29 | -25.57498 | -53.69087 | 17857 ft | 439 kts | 75° |
| 2026-04-27 18:29 | -25.56836 | -53.65771 | 18328 ft | 443 kts | 74° |
| 2026-04-27 18:29 | -25.56154 | -53.62440 | 18882 ft | 442 kts | 74° |
| 2026-04-27 18:29 | -25.55490 | -53.59142 | 19202 ft | 449 kts | 75° |
| 2026-04-27 18:30 | -25.54822 | -53.55731 | 19510 ft | 456 kts | 75° |
| 2026-04-27 18:30 | -25.54166 | -53.52277 | 19871 ft | 461 kts | 75° |
| 2026-04-27 18:30 | -25.53507 | -53.48742 | 20253 ft | 465 kts | 75° |
| 2026-04-27 18:30 | -25.52862 | -53.45256 | 20605 ft | 470 kts | 75° |
| 2026-04-27 18:31 | -25.52205 | -53.41701 | 20970 ft | 474 kts | 75° |
| 2026-04-27 18:31 | -25.51536 | -53.38111 | 21321 ft | 477 kts | 75° |
| 2026-04-27 18:31 | -25.50861 | -53.34503 | 21641 ft | 481 kts | 75° |
| 2026-04-27 18:31 | -25.50176 | -53.30864 | 21977 ft | 485 kts | 75° |
| 2026-04-27 18:32 | -25.49483 | -53.27192 | 22293 ft | 489 kts | 75° |
| 2026-04-27 18:32 | -25.48783 | -53.23499 | 22625 ft | 492 kts | 75° |
| 2026-04-27 18:32 | -25.48076 | -53.19780 | 22954 ft | 495 kts | 75° |
| 2026-04-27 18:32 | -25.47365 | -53.16046 | 23271 ft | 498 kts | 75° |
| 2026-04-27 18:33 | -25.46647 | -53.12275 | 23584 ft | 502 kts | 75° |
| 2026-04-27 18:33 | -25.45926 | -53.08483 | 23848 ft | 505 kts | 75° |
| 2026-04-27 18:33 | -25.45202 | -53.04664 | 24130 ft | 508 kts | 75° |
| 2026-04-27 18:33 | -25.44471 | -53.00828 | 24413 ft | 510 kts | 75° |
| 2026-04-27 18:34 | -25.43733 | -52.96980 | 24727 ft | 512 kts | 75° |
| 2026-04-27 18:34 | -25.43002 | -52.93171 | 25029 ft | 514 kts | 75° |
| 2026-04-27 18:34 | -25.42259 | -52.89303 | 25323 ft | 515 kts | 74° |
| 2026-04-27 18:34 | -25.41510 | -52.85418 | 25615 ft | 518 kts | 74° |
| 2026-04-27 18:35 | -25.40755 | -52.81513 | 25914 ft | 520 kts | 74° |
| 2026-04-27 18:35 | -25.39994 | -52.77591 | 26203 ft | 522 kts | 74° |
| 2026-04-27 18:35 | -25.39232 | -52.73664 | 26482 ft | 523 kts | 74° |
| 2026-04-27 18:35 | -25.38469 | -52.69715 | 26769 ft | 525 kts | 74° |
| 2026-04-27 18:36 | -25.37706 | -52.65760 | 27054 ft | 527 kts | 74° |
| 2026-04-27 18:36 | -25.36941 | -52.61798 | 27316 ft | 529 kts | 74° |
| 2026-04-27 18:36 | -25.36165 | -52.57800 | 27589 ft | 531 kts | 74° |
| 2026-04-27 18:36 | -25.35386 | -52.53809 | 27864 ft | 533 kts | 74° |
| 2026-04-27 18:37 | -25.34598 | -52.49789 | 28152 ft | 535 kts | 74° |
| 2026-04-27 18:37 | -25.33809 | -52.45761 | 28433 ft | 538 kts | 74° |
| 2026-04-27 18:37 | -25.33017 | -52.41705 | 28712 ft | 540 kts | 74° |
| 2026-04-27 18:37 | -25.32222 | -52.37639 | 28981 ft | 541 kts | 74° |
| 2026-04-27 18:38 | -25.31426 | -52.33575 | 29357 ft | 541 kts | 74° |
| 2026-04-27 18:38 | -25.30629 | -52.29511 | 29722 ft | 541 kts | 74° |
| 2026-04-27 18:38 | -25.29833 | -52.25457 | 30054 ft | 540 kts | 74° |
| 2026-04-27 18:38 | -25.29034 | -52.21409 | 30391 ft | 539 kts | 74° |
| 2026-04-27 18:39 | -25.28230 | -52.17359 | 30700 ft | 538 kts | 73° |
| 2026-04-27 18:39 | -25.27428 | -52.13319 | 31012 ft | 538 kts | 73° |
| 2026-04-27 18:39 | -25.26628 | -52.09290 | 31318 ft | 537 kts | 73° |
| 2026-04-27 18:39 | -25.25827 | -52.05264 | 31626 ft | 537 kts | 73° |
| 2026-04-27 18:40 | -25.25025 | -52.01241 | 31935 ft | 536 kts | 73° |
| 2026-04-27 18:40 | -25.24225 | -51.97227 | 32261 ft | 535 kts | 73° |
| 2026-04-27 18:40 | -25.23425 | -51.93223 | 32583 ft | 534 kts | 73° |
| 2026-04-27 18:40 | -25.22894 | -51.90565 | 32777 ft | 533 kts | 73° |
| 2026-04-27 18:41 | -25.22093 | -51.86567 | 33077 ft | 533 kts | 72° |
| 2026-04-27 18:41 | -25.21019 | -51.81233 | 33491 ft | 532 kts | 72° |
| 2026-04-27 18:41 | -25.20489 | -51.78594 | 33701 ft | 531 kts | 72° |
| 2026-04-27 18:41 | -25.19434 | -51.73330 | 34163 ft | 528 kts | 72° |
| 2026-04-27 18:42 | -25.18898 | -51.70667 | 34355 ft | 527 kts | 72° |
| 2026-04-27 18:42 | -25.18368 | -51.68047 | 34553 ft | 526 kts | 72° |
| 2026-04-27 18:42 | -25.17037 | -51.61509 | 34976 ft | 524 kts | 71° |
| 2026-04-27 18:42 | -25.16498 | -51.58866 | 35025 ft | 523 kts | 71° |
| 2026-04-27 18:43 | -25.14918 | -51.51096 | 35036 ft | 519 kts | 71° |
| 2026-04-27 18:43 | -25.13342 | -51.43309 | 35038 ft | 519 kts | 71° |
| 2026-04-27 18:44 | -25.11758 | -51.35578 | 35045 ft | 521 kts | 71° |
| 2026-04-27 18:44 | -25.10141 | -51.27730 | 35029 ft | 521 kts | 71° |
| 2026-04-27 18:45 | -25.08544 | -51.19920 | 35039 ft | 521 kts | 71° |
| 2026-04-27 18:45 | -25.06949 | -51.12174 | 35042 ft | 521 kts | 71° |
| 2026-04-27 18:46 | -25.05324 | -51.04372 | 35033 ft | 522 kts | 71° |
| 2026-04-27 18:46 | -25.02995 | -50.96927 | 35031 ft | 507 kts | 57° |
| 2026-04-27 18:47 | -24.99938 | -50.89912 | 35032 ft | 508 kts | 57° |
| 2026-04-27 18:47 | -24.96874 | -50.82897 | 35031 ft | 508 kts | 57° |
| 2026-04-27 18:48 | -24.93816 | -50.75878 | 35034 ft | 508 kts | 57° |
| 2026-04-27 18:48 | -24.90764 | -50.68864 | 35034 ft | 508 kts | 57° |
| 2026-04-27 18:49 | -24.87705 | -50.61848 | 35020 ft | 507 kts | 58° |
| 2026-04-27 18:49 | -24.84643 | -50.54861 | 35046 ft | 506 kts | 57° |
| 2026-04-27 18:50 | -24.81584 | -50.47899 | 35046 ft | 505 kts | 57° |
| 2026-04-27 18:50 | -24.78526 | -50.40944 | 35038 ft | 505 kts | 58° |
| 2026-04-27 18:51 | -24.75475 | -50.34004 | 35045 ft | 504 kts | 57° |
| 2026-04-27 18:51 | -24.72426 | -50.27071 | 35051 ft | 503 kts | 57° |
| 2026-04-27 18:52 | -24.69372 | -50.20150 | 35047 ft | 503 kts | 57° |
| 2026-04-27 18:53 | -24.64780 | -50.09793 | 35044 ft | 501 kts | 57° |
| 2026-04-27 18:53 | -24.61731 | -50.02909 | 35051 ft | 501 kts | 58° |
| 2026-04-27 18:54 | -24.58711 | -49.96069 | 35033 ft | 500 kts | 58° |
| 2026-04-27 18:54 | -24.55663 | -49.89209 | 35048 ft | 499 kts | 58° |
| 2026-04-27 18:55 | -24.52606 | -49.82362 | 35046 ft | 499 kts | 58° |
| 2026-04-27 18:55 | -24.49558 | -49.75528 | 35052 ft | 499 kts | 58° |
| 2026-04-27 18:56 | -24.46501 | -49.68679 | 35047 ft | 499 kts | 58° |
| 2026-04-27 18:56 | -24.43446 | -49.61842 | 35047 ft | 499 kts | 58° |
| 2026-04-27 18:57 | -24.40392 | -49.55013 | 35047 ft | 498 kts | 58° |
| 2026-04-27 18:57 | -24.37334 | -49.48193 | 35045 ft | 498 kts | 58° |
| 2026-04-27 18:58 | -24.34272 | -49.41378 | 35050 ft | 498 kts | 58° |
| 2026-04-27 18:58 | -24.32742 | -49.37978 | 34900 ft | 497 kts | 58° |
| 2026-04-27 18:58 | -24.31217 | -49.34588 | 34666 ft | 496 kts | 58° |
| 2026-04-27 18:58 | -24.29686 | -49.31188 | 34435 ft | 497 kts | 58° |
| 2026-04-27 18:59 | -24.28157 | -49.27793 | 34205 ft | 496 kts | 58° |
| 2026-04-27 18:59 | -24.26632 | -49.24408 | 33968 ft | 495 kts | 58° |
| 2026-04-27 18:59 | -24.25103 | -49.21018 | 33711 ft | 496 kts | 58° |
| 2026-04-27 18:59 | -24.23578 | -49.17629 | 33457 ft | 496 kts | 58° |
| 2026-04-27 19:00 | -24.22051 | -49.14241 | 33197 ft | 496 kts | 58° |
| 2026-04-27 19:00 | -24.20518 | -49.10850 | 32946 ft | 497 kts | 58° |
| 2026-04-27 19:00 | -24.18983 | -49.07462 | 32684 ft | 497 kts | 58° |
| 2026-04-27 19:00 | -24.17451 | -49.04084 | 32438 ft | 496 kts | 58° |
| 2026-04-27 19:01 | -24.15910 | -49.00688 | 32193 ft | 497 kts | 59° |
| 2026-04-27 19:01 | -24.14394 | -48.97344 | 31830 ft | 496 kts | 59° |
| 2026-04-27 19:01 | -24.12860 | -48.93959 | 31136 ft | 497 kts | 59° |
| 2026-04-27 19:01 | -24.11320 | -48.90566 | 30459 ft | 498 kts | 59° |
| 2026-04-27 19:02 | -24.09773 | -48.87163 | 29705 ft | 500 kts | 59° |
| 2026-04-27 19:02 | -24.08222 | -48.83760 | 28867 ft | 502 kts | 59° |
| 2026-04-27 19:02 | -24.06668 | -48.80351 | 28255 ft | 498 kts | 59° |
| 2026-04-27 19:02 | -24.05133 | -48.76977 | 27667 ft | 494 kts | 59° |
| 2026-04-27 19:03 | -24.03609 | -48.73628 | 27053 ft | 490 kts | 60° |
| 2026-04-27 19:03 | -24.02098 | -48.70310 | 26513 ft | 485 kts | 59° |
| 2026-04-27 19:03 | -24.00603 | -48.67032 | 25968 ft | 480 kts | 59° |
| 2026-04-27 19:03 | -23.99593 | -48.64822 | 25584 ft | 478 kts | 59° |
| 2026-04-27 19:04 | -23.97637 | -48.60543 | 24864 ft | 473 kts | 59° |
| 2026-04-27 19:04 | -23.96171 | -48.57338 | 24313 ft | 470 kts | 59° |
| 2026-04-27 19:04 | -23.94710 | -48.54150 | 23767 ft | 467 kts | 59° |
| 2026-04-27 19:04 | -23.93258 | -48.50982 | 23166 ft | 463 kts | 59° |
| 2026-04-27 19:05 | -23.91821 | -48.47847 | 22567 ft | 460 kts | 59° |
| 2026-04-27 19:05 | -23.90391 | -48.44728 | 22000 ft | 456 kts | 59° |
| 2026-04-27 19:05 | -23.88975 | -48.41651 | 21461 ft | 452 kts | 59° |
| 2026-04-27 19:05 | -23.87570 | -48.38597 | 20925 ft | 448 kts | 59° |
| 2026-04-27 19:06 | -23.86171 | -48.35563 | 20410 ft | 444 kts | 58° |
| 2026-04-27 19:06 | -23.84562 | -48.32725 | 19945 ft | 436 kts | 49° |
| 2026-04-27 19:06 | -23.82661 | -48.30256 | 19620 ft | 427 kts | 40° |
| 2026-04-27 19:06 | -23.80427 | -48.28074 | 19384 ft | 423 kts | 32° |
| 2026-04-27 19:07 | -23.78068 | -48.26252 | 19160 ft | 421 kts | 29° |
| 2026-04-27 19:07 | -23.75629 | -48.24415 | 18929 ft | 420 kts | 30° |
| 2026-04-27 19:07 | -23.73268 | -48.22625 | 18704 ft | 419 kts | 30° |
| 2026-04-27 19:07 | -23.70877 | -48.20807 | 18467 ft | 418 kts | 30° |
| 2026-04-27 19:08 | -23.68491 | -48.18994 | 18256 ft | 417 kts | 30° |
| 2026-04-27 19:08 | -23.66119 | -48.17194 | 17994 ft | 415 kts | 30° |
| 2026-04-27 19:08 | -23.63746 | -48.15399 | 17741 ft | 414 kts | 30° |
| 2026-04-27 19:08 | -23.61383 | -48.13620 | 17481 ft | 412 kts | 30° |
| 2026-04-27 19:09 | -23.59026 | -48.11848 | 17210 ft | 411 kts | 30° |
| 2026-04-27 19:09 | -23.56678 | -48.10081 | 16956 ft | 408 kts | 30° |
| 2026-04-27 19:09 | -23.54353 | -48.08331 | 16714 ft | 406 kts | 30° |
| 2026-04-27 19:09 | -23.52032 | -48.06581 | 16466 ft | 404 kts | 30° |
| 2026-04-27 19:10 | -23.49727 | -48.04842 | 16222 ft | 403 kts | 30° |
| 2026-04-27 19:10 | -23.47432 | -48.03111 | 15979 ft | 398 kts | 30° |
| 2026-04-27 19:10 | -23.45195 | -48.01424 | 15918 ft | 381 kts | 30° |
| 2026-04-27 19:10 | -23.43777 | -48.00353 | 15944 ft | 369 kts | 30° |
| 2026-04-27 19:11 | -23.41041 | -47.98287 | 15950 ft | 347 kts | 30° |
| 2026-04-27 19:11 | -23.39096 | -47.96822 | 15946 ft | 336 kts | 30° |
| 2026-04-27 19:11 | -23.37176 | -47.95382 | 15947 ft | 335 kts | 30° |
| 2026-04-27 19:11 | -23.35259 | -47.93950 | 15947 ft | 334 kts | 30° |
| 2026-04-27 19:12 | -23.33335 | -47.92516 | 15941 ft | 334 kts | 29° |
| 2026-04-27 19:12 | -23.31424 | -47.91090 | 15941 ft | 334 kts | 30° |
| 2026-04-27 19:12 | -23.29504 | -47.89654 | 15941 ft | 334 kts | 30° |
| 2026-04-27 19:12 | -23.27600 | -47.88229 | 15503 ft | 340 kts | 30° |
| 2026-04-27 19:13 | -23.25668 | -47.86781 | 15209 ft | 335 kts | 30° |
| 2026-04-27 19:13 | -23.23749 | -47.85341 | 14840 ft | 333 kts | 30° |
| 2026-04-27 19:13 | -23.21907 | -47.83828 | 14463 ft | 334 kts | 39° |
| 2026-04-27 19:13 | -23.20366 | -47.81929 | 14075 ft | 337 kts | 52° |
| 2026-04-27 19:14 | -23.19194 | -47.79714 | 13716 ft | 337 kts | 59° |
| 2026-04-27 19:14 | -23.18114 | -47.77474 | 13349 ft | 333 kts | 59° |
| 2026-04-27 19:14 | -23.17049 | -47.75281 | 12793 ft | 323 kts | 59° |
| 2026-04-27 19:14 | -23.16007 | -47.73148 | 12145 ft | 316 kts | 59° |
| 2026-04-27 19:15 | -23.14981 | -47.71054 | 11496 ft | 314 kts | 59° |
| 2026-04-27 19:15 | -23.13959 | -47.68978 | 11251 ft | 308 kts | 59° |
| 2026-04-27 19:15 | -23.12953 | -47.66934 | 10984 ft | 305 kts | 59° |
| 2026-04-27 19:15 | -23.11958 | -47.64909 | 10690 ft | 303 kts | 59° |
| 2026-04-27 19:16 | -23.10966 | -47.62890 | 10356 ft | 302 kts | 59° |
| 2026-04-27 19:16 | -23.10314 | -47.61563 | 10133 ft | 301 kts | 59° |
| 2026-04-27 19:16 | -23.08998 | -47.58882 | 9690 ft | 300 kts | 59° |
| 2026-04-27 19:16 | -23.08017 | -47.56881 | 9194 ft | 304 kts | 59° |
| 2026-04-27 19:17 | -23.07014 | -47.54842 | 8790 ft | 306 kts | 59° |
| 2026-04-27 19:17 | -23.06013 | -47.52806 | 8456 ft | 305 kts | 59° |
| 2026-04-27 19:17 | -23.05019 | -47.50781 | 8185 ft | 301 kts | 59° |
| 2026-04-27 19:17 | -23.04051 | -47.48804 | 8064 ft | 291 kts | 59° |
| 2026-04-27 19:18 | -23.03112 | -47.46887 | 7942 ft | 282 kts | 59° |
| 2026-04-27 19:18 | -23.02198 | -47.45029 | 7800 ft | 278 kts | 58° |
| 2026-04-27 19:18 | -23.01293 | -47.43194 | 7728 ft | 279 kts | 58° |
| 2026-04-27 19:18 | -23.00371 | -47.41322 | 7659 ft | 277 kts | 58° |
| 2026-04-27 19:19 | -22.99539 | -47.39432 | 7577 ft | 280 kts | 72° |
| 2026-04-27 19:19 | -22.99415 | -47.37349 | 7486 ft | 281 kts | 101° |
| 2026-04-27 19:19 | -23.00151 | -47.35394 | 7402 ft | 281 kts | 122° |
| 2026-04-27 19:19 | -23.01425 | -47.33804 | 7294 ft | 279 kts | 143° |
| 2026-04-27 19:20 | -23.03017 | -47.32622 | 7209 ft | 276 kts | 155° |
| 2026-04-27 19:20 | -23.04676 | -47.31575 | 7126 ft | 276 kts | 150° |
| 2026-04-27 19:20 | -23.06270 | -47.30459 | 7039 ft | 275 kts | 149° |
| 2026-04-27 19:20 | -23.07876 | -47.29320 | 6939 ft | 275 kts | 149° |
| 2026-04-27 19:21 | -23.09471 | -47.28156 | 6847 ft | 277 kts | 143° |
| 2026-04-27 19:21 | -23.10713 | -47.26570 | 6757 ft | 278 kts | 117° |
| 2026-04-27 19:21 | -23.11468 | -47.24635 | 6629 ft | 278 kts | 111° |
| 2026-04-27 19:21 | -23.12183 | -47.22683 | 6520 ft | 277 kts | 111° |
| 2026-04-27 19:22 | -23.12890 | -47.20743 | 6439 ft | 273 kts | 111° |
| 2026-04-27 19:22 | -23.13561 | -47.18901 | 6525 ft | 256 kts | 111° |
| 2026-04-27 19:22 | -23.14209 | -47.17123 | 6492 ft | 250 kts | 111° |
| 2026-04-27 19:22 | -23.14845 | -47.15376 | 6501 ft | 248 kts | 111° |
| 2026-04-27 19:23 | -23.15483 | -47.13634 | 6486 ft | 249 kts | 111° |
| 2026-04-27 19:23 | -23.16126 | -47.11879 | 6500 ft | 250 kts | 111° |
| 2026-04-27 19:23 | -23.16758 | -47.10122 | 6488 ft | 249 kts | 108° |
| 2026-04-27 19:23 | -23.16944 | -47.08277 | 6487 ft | 244 kts | 79° |
| 2026-04-27 19:24 | -23.16402 | -47.06627 | 6433 ft | 227 kts | 53° |
| 2026-04-27 19:24 | -23.15347 | -47.05413 | 5979 ft | 219 kts | 31° |
| 2026-04-27 19:24 | -23.14138 | -47.04420 | 5576 ft | 216 kts | 33° |
| 2026-04-27 19:24 | -23.12933 | -47.03521 | 5250 ft | 211 kts | 21° |
| 2026-04-27 19:25 | -23.11557 | -47.03022 | 5096 ft | 204 kts | 5° |
| 2026-04-27 19:25 | -23.10236 | -47.02957 | 5081 ft | 177 kts | 348° |
| 2026-04-27 19:25 | -23.09068 | -47.03224 | 5083 ft | 168 kts | 337° |
| 2026-04-27 19:25 | -23.08036 | -47.03756 | 5090 ft | 161 kts | 324° |
| 2026-04-27 19:26 | -23.07176 | -47.04487 | 5049 ft | 149 kts | 314° |
| 2026-04-27 19:26 | -23.06496 | -47.05313 | 4689 ft | 149 kts | 307° |
| 2026-04-27 19:26 | -23.06066 | -47.05913 | 4422 ft | 152 kts | 306° |
| 2026-04-27 19:26 | -23.05476 | -47.06830 | 4065 ft | 146 kts | 303° |
| 2026-04-27 19:27 | -23.04916 | -47.07739 | 3754 ft | 143 kts | 302° |
| 2026-04-27 19:27 | -23.04291 | -47.08605 | 3445 ft | 149 kts | 307° |
| 2026-04-27 19:27 | -23.03358 | -47.09792 | 2921 ft | 162 kts | 305° |
| 2026-04-27 19:27 | -23.02889 | -47.10425 | 2718 ft | 162 kts | 304° |
| 2026-04-27 19:28 | -23.02222 | -47.11399 | 2435 ft | 155 kts | 304° |
| 2026-04-27 19:28 | -23.01566 | -47.12306 | 2161 ft | 152 kts | 304° |
| 2026-04-27 19:28 | -23.01006 | -47.13086 | 2153 ft | 94 kts | 308° |
| 2026-04-27 19:28 | -23.00723 | -47.13480 | 2152 ft | 58 kts | 308° |
| 2026-04-27 19:29 | -23.00483 | -47.13813 | 2154 ft | 54 kts | 308° |
| 2026-04-27 19:29 | -23.00257 | -47.14127 | 2154 ft | 51 kts | 308° |
| 2026-04-27 19:29 | -23.00045 | -47.14429 | 2153 ft | 45 kts | 308° |
| 2026-04-27 19:29 | -22.99969 | -47.14599 | 2156 ft | 20 kts | 259° |
| 2026-04-27 19:30 | -23.00055 | -47.14709 | 2150 ft | 20 kts | 214° |
| 2026-04-27 19:30 | -23.00177 | -47.14700 | 2153 ft | 19 kts | 139° |
| 2026-04-27 19:30 | -23.00278 | -47.14656 | 2151 ft | 16 kts | 184° |
| 2026-04-27 19:30 | -23.00372 | -47.14716 | 2153 ft | 16 kts | 216° |
| 2026-04-27 19:31 | -23.00443 | -47.14781 | 2152 ft | 3 kts | 218° |
| 2026-04-27 19:31 | -23.00446 | -47.14783 | 2151 ft | 0 kts | 218° |